Time;durP1;ratioP1;P1;durP2;ratioP2;P2;SDS_P1;SDS_P2;PMS_P1;PMS_P2;Temp;Humidity;BMP_temperature;BMP_pressure;BME280_temperature;BME280_humidity;BME280_pressure;Samples;Min_cycle;Max_cycle;Signal;HPM_P1;HPM_P2
2022/03/16 00:04:31;;;;;;;10.73;8.80;;;;;;;8.94;38.82;101394.84;10376390;28;20221;-84
2022/03/16 00:09:35;;;;;;;11.40;7.57;;;;;;;8.49;38.47;101402.16;10374763;28;20259;-83
2022/03/16 00:14:37;;;;;;;10.63;7.63;;;;;;;8.70;38.44;101396.19;10382030;28;20224;-83
2022/03/16 00:19:40;;;;;;;13.53;8.03;;;;;;;8.13;38.69;101393.47;10381658;28;20474;-83
2022/03/16 00:24:42;;;;;;;9.50;7.80;;;;;;;8.77;37.99;101413.56;10386993;28;20220;-84
2022/03/16 00:29:45;;;;;;;9.37;7.53;;;;;;;8.51;39.10;101419.59;10399577;28;20628;-83
2022/03/16 00:34:48;;;;;;;13.97;7.50;;;;;;;8.19;38.79;101411.97;10422041;28;20204;-83
2022/03/16 00:39:50;;;;;;;8.97;7.30;;;;;;;7.94;39.63;101424.47;10406788;28;20266;-83
2022/03/16 00:44:54;;;;;;;8.10;6.67;;;;;;;8.47;38.35;101420.53;10406378;28;20286;-83
2022/03/16 00:49:56;;;;;;;10.30;7.50;;;;;;;8.47;38.28;101421.38;10389670;28;20567;-84
2022/03/16 00:54:58;;;;;;;11.40;7.83;;;;;;;8.58;38.59;101427.66;10393529;28;20244;-83
2022/03/16 01:00:01;;;;;;;7.97;6.73;;;;;;;8.32;38.38;101421.63;10412715;28;20205;-83
2022/03/16 01:05:05;;;;;;;11.20;7.30;;;;;;;8.42;38.57;101418.63;10367581;28;20302;-84
2022/03/16 01:10:07;;;;;;;11.27;8.50;;;;;;;8.58;38.55;101427.66;10347026;28;20606;-84
2022/03/16 01:15:09;;;;;;;9.23;7.27;;;;;;;8.23;38.72;101426.28;10379631;28;20229;-83
2022/03/16 01:20:12;;;;;;;11.23;8.10;;;;;;;8.68;38.50;101427.50;10361906;28;20666;-84
2022/03/16 01:25:14;;;;;;;10.57;7.17;;;;;;;8.08;38.75;101434.97;10360405;28;20550;-84
2022/03/16 01:30:16;;;;;;;10.43;8.13;;;;;;;8.36;38.83;101419.88;10385397;28;20235;-85
2022/03/16 01:35:19;;;;;;;12.90;7.43;;;;;;;7.71;39.47;101433.78;10422595;28;20201;-83
2022/03/16 01:40:21;;;;;;;8.80;7.63;;;;;;;7.64;39.47;101430.47;10391294;28;20510;-83
2022/03/16 01:45:24;;;;;;;10.80;8.07;;;;;;;8.12;39.20;101410.69;10356149;28;20930;-83
2022/03/16 01:50:26;;;;;;;10.17;7.13;;;;;;;7.14;40.39;101432.78;10374590;28;20535;-83
2022/03/16 01:55:28;;;;;;;10.23;7.40;;;;;;;7.35;40.68;101426.94;10346224;28;20229;-83
2022/03/16 02:00:31;;;;;;;9.67;6.97;;;;;;;7.33;39.99;101432.03;10340187;28;20272;-83
2022/03/16 02:05:34;;;;;;;9.17;7.00;;;;;;;8.29;38.49;101414.59;10398541;28;20204;-83
2022/03/16 02:10:36;;;;;;;12.70;8.23;;;;;;;7.89;38.40;101421.72;10404194;28;20287;-82
2022/03/16 02:15:39;;;;;;;9.00;7.03;;;;;;;8.05;38.01;101419.50;10409110;28;20229;-83
2022/03/16 02:20:41;;;;;;;10.57;7.77;;;;;;;8.29;38.04;101416.59;10416142;28;20201;-82
2022/03/16 02:25:49;;;;;;;9.27;7.03;;;;;;;7.53;38.57;101421.34;10344999;28;20228;-84
2022/03/16 02:30:51;;;;;;;10.50;8.00;;;;;;;7.90;38.60;101429.00;10377157;28;20259;-84
2022/03/16 02:35:54;;;;;;;11.60;8.50;;;;;;;7.57;39.51;101430.03;10344790;28;20201;-84
2022/03/16 02:40:56;;;;;;;15.10;8.07;;;;;;;7.88;39.21;101431.31;10352945;28;20287;-83
2022/03/16 02:45:58;;;;;;;11.43;7.87;;;;;;;7.66;38.73;101424.56;10375790;28;20213;-83
2022/03/16 02:51:01;;;;;;;10.17;7.20;;;;;;;7.68;38.40;101423.13;10375755;28;20248;-83
2022/03/16 02:56:03;;;;;;;11.63;7.63;;;;;;;6.75;40.50;101443.34;10358450;28;20707;-83
2022/03/16 03:01:06;;;;;;;8.90;7.60;;;;;;;7.21;39.94;101440.88;10396316;28;20267;-83
2022/03/16 03:06:09;;;;;;;14.87;9.20;;;;;;;6.94;40.79;101432.19;10384874;28;20266;-83
2022/03/16 03:11:11;;;;;;;13.43;8.93;;;;;;;7.13;40.40;101427.47;10401604;28;20189;-83
2022/03/16 03:16:13;;;;;;;9.63;8.47;;;;;;;6.84;40.14;101419.09;10417480;28;20265;-84
2022/03/16 03:21:15;;;;;;;11.17;8.03;;;;;;;6.76;40.12;101416.91;10400199;28;20688;-82
2022/03/16 03:26:18;;;;;;;8.87;7.70;;;;;;;6.42;40.65;101419.72;10400814;28;20316;-83
2022/03/16 03:31:20;;;;;;;9.40;7.47;;;;;;;6.71;40.01;101419.75;10401728;28;20248;-83
2022/03/16 03:36:22;;;;;;;8.83;7.43;;;;;;;6.85;39.49;101426.34;10389731;28;20243;-83
2022/03/16 03:41:25;;;;;;;11.20;8.23;;;;;;;6.84;40.26;101421.91;10416956;28;20269;-83
2022/03/16 03:46:27;;;;;;;13.07;8.57;;;;;;;7.05;39.72;101408.44;10400332;28;20196;-84
2022/03/16 03:51:29;;;;;;;13.27;8.20;;;;;;;6.62;41.17;101413.06;10416753;28;20188;-85
2022/03/16 03:56:32;;;;;;;10.67;7.80;;;;;;;6.58;40.89;101409.19;10399598;28;20236;-83
2022/03/16 04:01:34;;;;;;;9.57;7.00;;;;;;;6.97;40.03;101418.38;10399720;28;20224;-82
2022/03/16 04:06:36;;;;;;;11.93;8.03;;;;;;;6.99;40.09;101406.81;10370156;28;20282;-82
2022/03/16 04:11:39;;;;;;;10.90;7.83;;;;;;;6.97;39.46;101409.94;10383170;28;20212;-83
2022/03/16 04:16:41;;;;;;;10.40;7.57;;;;;;;7.00;38.73;101409.34;10415788;28;20208;-83
2022/03/16 04:21:44;;;;;;;9.83;7.77;;;;;;;6.83;39.05;101415.44;10383373;28;20282;-83
2022/03/16 04:26:46;;;;;;;9.77;7.37;;;;;;;7.09;38.88;101413.19;10377436;28;20201;-82
2022/03/16 04:31:48;;;;;;;10.27;7.10;;;;;;;7.00;39.06;101406.53;10375458;28;20275;-84
2022/03/16 04:36:50;;;;;;;10.97;6.83;;;;;;;6.93;39.27;101414.47;10358048;28;20205;-82
2022/03/16 04:41:52;;;;;;;8.33;6.43;;;;;;;7.02;38.63;101407.06;10357355;28;20209;-83
2022/03/16 04:46:55;;;;;;;9.13;7.10;;;;;;;7.03;38.84;101419.16;10358403;28;20197;-84
2022/03/16 04:51:57;;;;;;;9.07;7.30;;;;;;;6.81;39.40;101417.72;10331947;28;20279;-83
2022/03/16 04:57:00;;;;;;;8.47;7.23;;;;;;;6.17;41.41;101423.59;10344924;28;20234;-82
2022/03/16 05:02:02;;;;;;;8.53;6.83;;;;;;;6.50;40.96;101414.31;10368042;28;20221;-83
2022/03/16 05:07:04;;;;;;;9.57;7.47;;;;;;;7.36;38.40;101411.75;10360516;28;20327;-83
2022/03/16 05:12:07;;;;;;;11.80;8.00;;;;;;;7.37;38.69;101413.38;10342160;28;20594;-84
2022/03/16 05:17:10;;;;;;;11.93;7.87;;;;;;;7.27;38.65;101425.63;10351173;28;20260;-85
2022/03/16 05:22:12;;;;;;;13.80;9.13;;;;;;;6.83;39.43;101426.69;10353263;28;20272;-84
2022/03/16 05:27:19;;;;;;;8.90;6.57;;;;;;;6.85;39.24;101440.41;10374401;28;20255;-83
2022/03/16 05:32:21;;;;;;;12.90;7.90;;;;;;;6.68;39.54;101434.38;10357854;28;20213;-84
2022/03/16 05:37:24;;;;;;;9.37;6.50;;;;;;;6.50;40.12;101439.59;10377661;28;20232;-85
2022/03/16 05:42:26;;;;;;;10.43;7.47;;;;;;;6.75;39.37;101446.13;10353364;28;20221;-86
2022/03/16 05:47:29;;;;;;;11.17;7.40;;;;;;;6.61;39.12;101445.97;10342736;28;20286;-86
2022/03/16 05:52:31;;;;;;;9.50;6.70;;;;;;;6.62;39.63;101449.59;10384834;28;20593;-85
2022/03/16 05:57:37;;;;;;;9.03;7.30;;;;;;;6.58;39.42;101451.34;10384756;28;20625;-86
2022/03/16 06:02:41;;;;;;;12.13;7.90;;;;;;;6.53;39.17;101450.25;10342830;28;20330;-84
2022/03/16 06:07:43;;;;;;;9.30;7.17;;;;;;;6.53;39.50;101444.63;10369128;28;20262;-84
2022/03/16 06:12:49;;;;;;;10.50;7.90;;;;;;;6.30;39.80;101445.38;10368300;28;20201;-87
2022/03/16 06:17:54;;;;;;;9.03;6.67;;;;;;;6.57;39.44;101444.06;10375601;28;20711;-85
2022/03/16 06:22:57;;;;;;;13.13;8.17;;;;;;;6.44;40.12;101437.97;10341676;28;20627;-87
2022/03/16 06:27:59;;;;;;;9.67;7.10;;;;;;;6.80;39.45;101432.88;10353567;28;20213;-85
2022/03/16 06:33:02;;;;;;;14.43;8.80;;;;;;;6.65;39.73;101440.59;10392775;28;20601;-84
2022/03/16 06:38:04;;;;;;;12.07;8.07;;;;;;;6.73;39.78;101442.78;10347393;28;20283;-84
2022/03/16 06:43:06;;;;;;;10.50;7.97;;;;;;;6.84;39.79;101450.00;10343194;28;20225;-86
2022/03/16 06:48:09;;;;;;;11.03;7.60;;;;;;;6.97;39.47;101442.84;10340653;28;20213;-83
2022/03/16 06:53:11;;;;;;;10.17;7.53;;;;;;;7.15;39.29;101445.72;10369918;28;20281;-83
2022/03/16 06:58:13;;;;;;;17.17;9.13;;;;;;;7.22;39.91;101439.75;10353760;28;20606;-84
2022/03/16 07:03:15;;;;;;;11.13;7.87;;;;;;;7.60;39.30;101449.13;10374002;28;20244;-84
2022/03/16 07:08:18;;;;;;;13.60;8.67;;;;;;;7.98;38.65;101460.47;10391318;28;20255;-84
2022/03/16 07:13:20;;;;;;;11.03;8.30;;;;;;;8.13;38.15;101455.44;10387608;28;20260;-84
2022/03/16 07:18:23;;;;;;;12.33;8.03;;;;;;;8.26;37.89;101459.47;10375006;28;20645;-84
2022/03/16 07:23:26;;;;;;;9.50;7.53;;;;;;;8.58;37.35;101448.22;10356742;28;20321;-86
2022/03/16 07:28:28;;;;;;;10.07;7.13;;;;;;;8.50;37.54;101442.47;10366461;28;20602;-86
2022/03/16 07:33:30;;;;;;;13.30;8.27;;;;;;;8.69;37.54;101445.25;10335928;28;20277;-84
2022/03/16 07:38:33;;;;;;;11.67;8.33;;;;;;;8.44;38.14;101449.31;10342871;28;20607;-84
2022/03/16 07:43:36;;;;;;;9.97;7.60;;;;;;;8.05;39.07;101458.09;10357901;28;20237;-84
2022/03/16 07:48:40;;;;;;;10.23;7.20;;;;;;;8.85;37.18;101463.59;10356240;28;20201;-83
2022/03/16 07:53:43;;;;;;;9.57;7.70;;;;;;;10.21;35.03;101464.75;10362442;28;20260;-86
2022/03/16 07:58:45;;;;;;;17.43;8.13;;;;;;;9.09;37.33;101455.78;10353220;28;20256;-85
2022/03/16 08:03:48;;;;;;;10.83;7.10;;;;;;;9.63;35.98;101460.66;10361260;28;20699;-86
2022/03/16 08:08:50;;;;;;;12.00;7.83;;;;;;;10.03;35.72;101446.78;10347754;28;20209;-88
2022/03/16 08:13:52;;;;;;;11.87;7.77;;;;;;;9.90;35.75;101442.84;10363354;28;20647;-85
2022/03/16 08:18:54;;;;;;;11.77;8.00;;;;;;;9.57;36.25;101438.47;10354608;28;20221;-86
2022/03/16 08:23:57;;;;;;;10.53;7.50;;;;;;;10.51;35.13;101427.25;10372623;28;20260;-86
2022/03/16 08:28:59;;;;;;;9.73;7.30;;;;;;;10.27;35.40;101419.06;10352033;28;20201;-90
2022/03/16 08:34:02;;;;;;;9.53;7.90;;;;;;;10.63;34.67;101416.19;10349490;28;20233;-86
2022/03/16 08:39:06;;;;;;;10.77;8.50;;;;;;;10.28;35.68;101405.78;10350240;28;20205;-87
2022/03/16 08:44:08;;;;;;;10.87;7.97;;;;;;;9.82;36.28;101406.88;10334380;28;20280;-86
2022/03/16 08:49:10;;;;;;;9.33;7.57;;;;;;;10.28;36.06;101394.47;10355547;28;20202;-84
2022/03/16 08:54:13;;;;;;;12.13;8.17;;;;;;;10.14;36.35;101382.38;10343197;28;20311;-85
2022/03/16 08:59:18;;;;;;;12.00;7.93;;;;;;;10.01;36.45;101384.09;10367344;28;20312;-86
2022/03/16 09:04:21;;;;;;;10.83;7.90;;;;;;;10.90;34.87;101380.41;10357200;28;20638;-88
2022/03/16 09:09:23;;;;;;;12.27;7.97;;;;;;;10.34;36.05;101387.53;10343584;28;20236;-85
2022/03/16 09:14:25;;;;;;;11.87;7.90;;;;;;;10.86;35.04;101385.06;10356339;28;20272;-86
2022/03/16 09:19:28;;;;;;;10.63;8.43;;;;;;;10.84;35.08;101387.38;10356943;28;20236;-86
2022/03/16 09:24:32;;;;;;;12.33;9.20;;;;;;;12.40;32.74;101383.75;10378048;28;20240;-91
2022/03/16 09:29:35;;;;;;;10.10;8.20;;;;;;;11.28;34.99;101380.72;10339448;28;20209;-88
2022/03/16 09:34:40;;;;;;;13.43;9.37;;;;;;;11.74;34.00;101371.72;10374140;28;20256;-89
2022/03/16 09:39:44;;;;;;;13.20;8.30;;;;;;;12.46;32.90;101365.38;10362638;28;20279;-86
2022/03/16 09:44:47;;;;;;;10.60;8.03;;;;;;;11.40;34.26;101361.97;10354898;28;20279;-86
2022/03/16 09:49:51;;;;;;;11.13;8.20;;;;;;;12.09;33.66;101362.09;10359054;28;20668;-85
2022/03/16 09:54:54;;;;;;;13.73;8.53;;;;;;;12.29;32.79;101371.09;10397542;28;20224;-85
2022/03/16 09:59:56;;;;;;;11.47;8.20;;;;;;;12.95;32.50;101357.44;10363055;28;20205;-86
2022/03/16 10:04:59;;;;;;;9.63;7.67;;;;;;;13.32;31.40;101362.25;10370701;28;20256;-86
2022/03/16 10:15:26;;;;;;;6.93;5.43;;;;;;;11.74;33.19;101366.88;10364453;28;20275;-87
2022/03/16 10:20:32;;;;;;;8.17;5.80;;;;;;;13.76;30.44;101362.84;10358846;28;20224;-87
2022/03/16 10:25:45;;;;;;;14.50;5.60;;;;;;;12.48;31.41;101368.72;10339568;28;20280;-89
2022/03/16 10:30:57;;;;;;;6.23;5.57;;;;;;;12.64;31.92;101371.84;10368785;28;20236;-90
2022/03/16 10:36:04;;;;;;;7.90;5.77;;;;;;;12.95;31.10;101377.31;10368577;28;20233;-94
2022/03/16 10:41:11;;;;;;;8.20;5.80;;;;;;;13.05;30.72;101371.25;10352254;28;20267;-87
2022/03/16 10:51:36;;;;;;;6.03;5.27;;;;;;;13.07;30.67;101363.22;10357111;28;20221;-90
2022/03/16 10:56:58;;;;;;;9.63;6.13;;;;;;;13.55;30.26;101349.41;10337244;28;20368;-86
2022/03/16 11:02:04;;;;;;;7.63;6.30;;;;;;;13.11;30.73;101348.00;10348245;28;20627;-86
2022/03/16 11:07:07;;;;;;;10.30;6.77;;;;;;;13.01;30.84;101356.06;10338250;28;20836;-88
2022/03/16 11:17:32;;;;;;;9.13;6.57;;;;;;;12.75;31.63;101350.44;10366400;28;20629;-89
2022/03/16 11:28:23;;;;;;;7.07;6.37;;;;;;;14.33;29.27;101336.63;10352072;28;20254;-87
2022/03/16 11:33:26;;;;;;;9.43;6.70;;;;;;;12.77;31.20;101337.59;10376496;28;20205;-86
2022/03/16 11:38:32;;;;;;;6.85;6.15;;;;;;;12.33;31.97;101336.03;10341509;28;20232;-90
2022/03/16 11:43:36;;;;;;;6.10;5.40;;;;;;;13.22;30.47;101322.88;10330742;28;20248;-88
2022/03/16 11:48:40;;;;;;;6.30;5.70;;;;;;;13.35;30.29;101312.44;10337862;28;20231;-89
2022/03/16 11:53:48;;;;;;;8.40;5.32;;;;;;;13.32;30.09;101311.13;10339046;28;20217;-91
2022/03/16 11:58:54;;;;;;;8.00;5.70;;;;;;;13.59;29.44;101304.94;10360789;28;20267;-88
2022/03/16 12:04:08;;;;;;;8.02;5.28;;;;;;;12.74;30.24;101312.72;10334784;28;20225;-89
2022/03/16 12:09:18;;;;;;;7.57;5.45;;;;;;;14.25;28.29;101292.81;10373716;28;20296;-89
2022/03/16 12:14:20;;;;;;;6.60;5.07;;;;;;;15.14;27.70;101279.72;10354603;28;20201;-92
2022/03/16 12:19:30;;;;;;;5.50;5.00;;;;;;;14.50;28.41;101279.53;10354900;28;20236;-89
2022/03/16 12:29:59;;;;;;;6.20;5.00;;;;;;;14.61;28.38;101252.28;10394936;28;20265;-92
2022/03/16 12:35:06;;;;;;;6.73;4.60;;;;;;;14.77;28.39;101243.88;10385374;28;20205;-88
2022/03/16 12:40:12;;;;;;;8.73;5.23;;;;;;;15.72;27.04;101232.72;10396259;28;20255;-89
2022/03/16 12:45:17;;;;;;;6.60;5.17;;;;;;;15.11;26.77;101232.03;10387174;28;20254;-87
2022/03/16 12:50:21;;;;;;;7.85;5.97;;;;;;;14.03;28.71;101230.66;10407216;28;20208;-87
2022/03/16 12:55:24;;;;;;;6.90;6.07;;;;;;;14.86;27.43;101222.63;10380343;28;20556;-87
2022/03/16 13:00:38;;;;;;;6.67;5.00;;;;;;;16.64;25.20;101200.22;10407437;28;20267;-88
2022/03/16 13:05:41;;;;;;;6.77;4.70;;;;;;;15.01;26.98;101199.13;10381111;28;20259;-89
2022/03/16 13:16:05;;;;;;;10.27;5.00;;;;;;;16.08;26.02;101190.94;10399398;28;20220;-89
2022/03/16 13:21:27;;;;;;;7.78;4.68;;;;;;;16.12;25.81;101197.56;10412283;28;20201;-88
2022/03/16 13:26:30;;;;;;;4.70;4.20;;;;;;;16.22;25.09;101197.03;10386154;28;20220;-88
2022/03/16 13:31:33;;;;;;;5.25;4.03;;;;;;;16.41;24.39;101193.50;10360438;28;20219;-92
2022/03/16 13:36:51;;;;;;;5.97;3.97;;;;;;;15.99;25.30;101198.84;10360499;28;20240;-89
2022/03/16 13:42:12;;;;;;;4.82;4.32;;;;;;;14.89;26.59;101202.00;10357387;28;20200;-89
2022/03/16 13:47:15;;;;;;;4.82;3.70;;;;;;;15.69;26.18;101184.94;10361553;28;20258;-88
2022/03/16 13:52:27;;;;;;;6.50;4.18;;;;;;;14.33;26.47;101191.53;10361126;28;20248;-87
2022/03/16 13:57:29;;;;;;;4.07;3.40;;;;;;;14.77;25.96;101186.94;10346826;28;20294;-87
2022/03/16 14:02:32;;;;;;;7.18;3.75;;;;;;;14.63;26.58;101198.69;10355067;28;20266;-88
2022/03/16 14:07:39;;;;;;;4.68;3.40;;;;;;;14.82;26.47;101181.81;10380136;28;20233;-88
2022/03/16 14:12:42;;;;;;;4.43;3.60;;;;;;;15.86;25.66;101171.59;10366579;28;20236;-91
2022/03/16 14:17:55;;;;;;;4.60;3.38;;;;;;;15.01;26.00;101175.53;10380986;28;20221;-86
2022/03/16 14:22:59;;;;;;;5.13;3.43;;;;;;;14.99;26.23;101161.66;10367616;28;20228;-87
2022/03/16 14:28:02;;;;;;;5.47;3.70;;;;;;;15.19;26.17;101173.25;10360866;28;20287;-85
2022/03/16 14:33:07;;;;;;;6.33;3.50;;;;;;;16.09;25.63;101169.78;10359537;28;20271;-85
2022/03/16 14:38:09;;;;;;;4.60;4.03;;;;;;;14.35;27.22;101175.78;10357233;28;20228;-87
2022/03/16 14:43:12;;;;;;;4.78;4.20;;;;;;;14.03;27.57;101180.31;10352931;28;20201;-85
2022/03/16 14:48:14;;;;;;;7.15;3.80;;;;;;;15.06;26.87;101175.28;10378336;28;20237;-86
2022/03/16 14:53:17;;;;;;;4.80;4.20;;;;;;;15.56;26.41;101166.22;10362890;28;20212;-85
2022/03/16 14:58:19;;;;;;;5.10;4.15;;;;;;;14.67;27.42;101165.47;10358183;28;20606;-86
2022/03/16 15:03:21;;;;;;;5.40;4.40;;;;;;;14.25;28.12;101164.81;10361105;28;20201;-87
2022/03/16 15:08:24;;;;;;;4.77;3.90;;;;;;;14.62;26.94;101140.13;10361722;28;20217;-86
2022/03/16 15:13:26;;;;;;;5.20;3.50;;;;;;;14.70;26.99;101130.59;10362601;28;20205;-85
2022/03/16 15:18:29;;;;;;;8.70;4.20;;;;;;;13.89;28.02;101135.16;10373447;28;20221;-85
2022/03/16 15:23:31;;;;;;;6.90;4.20;;;;;;;13.64;28.36;101109.88;10348413;28;20259;-86
2022/03/16 15:28:33;;;;;;;4.35;3.45;;;;;;;14.83;26.79;101098.09;10361539;28;20573;-85
2022/03/16 15:33:35;;;;;;;8.98;3.58;;;;;;;16.41;25.29;101085.06;10349489;28;20213;-85
2022/03/16 15:38:37;;;;;;;6.03;4.53;;;;;;;15.12;26.98;101079.06;10358210;28;20247;-86
2022/03/16 15:43:40;;;;;;;5.55;3.63;;;;;;;15.34;26.33;101076.47;10359768;28;20201;-85
2022/03/16 15:48:43;;;;;;;5.27;3.40;;;;;;;16.12;25.71;101066.34;10360704;28;20303;-85
2022/03/16 15:53:47;;;;;;;5.00;3.30;;;;;;;16.12;25.44;101066.34;10376992;28;20252;-86
2022/03/16 15:58:50;;;;;;;8.68;3.60;;;;;;;15.33;26.42;101069.09;10358608;28;20614;-85
2022/03/16 16:03:53;;;;;;;4.03;3.27;;;;;;;15.46;26.20;101072.72;10359598;28;20283;-85
2022/03/16 16:08:58;;;;;;;6.03;3.67;;;;;;;15.18;27.26;101055.63;10373482;28;20225;-85
2022/03/16 16:14:01;;;;;;;5.17;3.57;;;;;;;15.00;26.45;101042.88;10356387;28;20252;-85
2022/03/16 16:19:05;;;;;;;5.43;3.33;;;;;;;15.44;26.46;101040.06;10360267;28;20807;-86
2022/03/16 16:24:09;;;;;;;4.73;3.50;;;;;;;16.32;25.63;101042.44;10391300;28;20204;-87
2022/03/16 16:29:20;;;;;;;4.55;3.65;;;;;;;15.52;26.12;101059.88;10366798;28;20243;-85
2022/03/16 16:34:23;;;;;;;6.68;4.72;;;;;;;14.41;28.00;101054.88;10342267;28;20201;-86
2022/03/16 16:39:25;;;;;;;8.02;6.43;;;;;;;15.48;27.63;101041.84;10359179;28;20197;-86
2022/03/16 16:44:28;;;;;;;7.80;5.80;;;;;;;14.58;29.16;101053.78;10382231;28;20217;-87
2022/03/16 16:49:30;;;;;;;9.80;6.40;;;;;;;15.61;27.74;101088.19;10415407;28;20204;-86
2022/03/16 16:54:32;;;;;;;9.47;6.73;;;;;;;15.54;28.16;101083.13;10380800;28;20256;-86
2022/03/16 16:59:34;;;;;;;8.53;7.00;;;;;;;14.78;28.93;101084.09;10357546;28;20556;-86
2022/03/16 17:04:37;;;;;;;10.13;7.03;;;;;;;14.15;29.74;101079.97;10358190;28;20283;-88
2022/03/16 17:09:40;;;;;;;8.13;6.30;;;;;;;14.96;28.78;101064.72;10343644;28;20204;-86
2022/03/16 17:14:42;;;;;;;7.17;6.43;;;;;;;14.40;29.72;101112.13;10366449;28;20676;-86
2022/03/16 17:19:45;;;;;;;9.27;6.70;;;;;;;14.63;29.19;101104.78;10362146;28;20275;-87
2022/03/16 17:24:47;;;;;;;8.67;6.73;;;;;;;15.40;28.30;101096.16;10365979;28;20280;-88
2022/03/16 17:29:49;;;;;;;7.67;6.57;;;;;;;15.37;28.23;101092.00;10382003;28;20278;-87
2022/03/16 17:34:51;;;;;;;9.43;6.47;;;;;;;15.63;27.89;101089.50;10350872;28;20201;-87
2022/03/16 17:39:53;;;;;;;10.03;7.27;;;;;;;15.89;27.41;101085.31;10367731;28;20275;-86
2022/03/16 17:50:16;;;;;;;7.87;6.93;;;;;;;15.67;27.99;101079.03;10384263;28;20540;-86
2022/03/16 18:00:48;;;;;;;8.97;6.57;;;;;;;15.31;28.39;101074.31;10361709;28;20274;-85
2022/03/16 18:05:51;;;;;;;10.88;7.65;;;;;;;14.58;28.97;101070.88;10362796;28;20594;-88
2022/03/16 18:16:15;;;;;;;7.90;6.33;;;;;;;15.27;28.04;101058.34;10357270;28;20275;-88
2022/03/16 18:21:18;;;;;;;8.93;7.97;;;;;;;15.06;28.15;101052.00;10352814;28;20758;-85
2022/03/16 18:26:23;;;;;;;9.10;7.60;;;;;;;15.55;27.81;101053.41;10347549;28;20360;-86
2022/03/16 18:31:25;;;;;;;8.97;8.07;;;;;;;14.77;28.83;101039.72;10362886;28;20229;-86
2022/03/16 18:36:28;;;;;;;8.83;7.87;;;;;;;14.88;28.65;101023.00;10350207;28;20286;-87
2022/03/16 18:41:30;;;;;;;10.00;8.03;;;;;;;15.54;28.25;101028.16;10350363;28;20245;-86
2022/03/16 18:46:32;;;;;;;9.60;7.30;;;;;;;15.62;27.92;101027.16;10350176;28;20602;-89
2022/03/16 18:51:46;;;;;;;8.73;6.93;;;;;;;15.90;27.69;101007.97;10350227;28;20675;-87
2022/03/16 18:56:51;;;;;;;8.37;6.93;;;;;;;14.82;29.15;101005.34;10350193;28;20363;-86
2022/03/16 19:01:53;;;;;;;10.33;8.30;;;;;;;15.52;28.07;100997.19;10352912;28;20307;-88
2022/03/16 19:06:57;;;;;;;10.77;8.57;;;;;;;15.01;28.67;100996.97;10351706;28;20249;-86
2022/03/16 19:17:22;;;;;;;12.63;9.27;;;;;;;15.59;28.12;100985.94;10362674;28;20287;-86
2022/03/16 19:22:24;;;;;;;8.40;7.60;;;;;;;14.90;28.38;100987.25;10334125;28;20201;-86
2022/03/16 19:27:27;;;;;;;8.57;7.10;;;;;;;15.80;27.93;100984.88;10350756;28;20587;-87
2022/03/16 19:32:31;;;;;;;10.00;8.03;;;;;;;13.94;29.71;100989.13;10348045;28;20249;-87
2022/03/16 19:37:34;;;;;;;10.73;8.37;;;;;;;15.85;27.39;100978.88;10362327;28;20582;-90
2022/03/16 19:42:40;;;;;;;7.78;6.97;;;;;;;15.55;28.03;100978.50;10326900;28;20309;-89
2022/03/16 19:47:42;;;;;;;11.50;8.63;;;;;;;15.13;28.31;100983.88;10355497;28;20271;-90
2022/03/16 19:52:45;;;;;;;12.13;8.67;;;;;;;13.66;30.47;100991.84;10360595;28;20224;-89
2022/03/16 19:57:48;;;;;;;10.53;8.30;;;;;;;14.97;28.91;100987.47;10357367;28;20602;-87
2022/03/16 20:02:53;;;;;;;9.18;7.65;;;;;;;15.62;27.97;100987.25;10345132;28;20502;-87
2022/03/16 20:07:56;;;;;;;8.53;7.50;;;;;;;15.38;28.71;100985.38;10357641;28;20629;-87
2022/03/16 20:12:58;;;;;;;9.60;8.60;;;;;;;14.50;29.05;100983.63;10363937;28;20233;-89
2022/03/16 20:18:00;;;;;;;9.50;8.50;;;;;;;14.76;28.99;100986.88;10346810;28;20229;-87
2022/03/16 20:23:05;;;;;;;12.55;9.00;;;;;;;15.33;27.93;100988.50;10339866;28;20319;-87
2022/03/16 20:28:11;;;;;;;10.10;8.40;;;;;;;15.48;28.21;100979.16;10344399;28;20325;-89
2022/03/16 20:33:14;;;;;;;9.90;8.90;;;;;;;15.02;28.45;100981.53;10360337;28;20213;-86
2022/03/16 20:38:17;;;;;;;8.90;7.93;;;;;;;14.15;30.01;100977.59;10343301;28;20688;-88
2022/03/16 20:43:20;;;;;;;9.70;8.70;;;;;;;14.14;29.64;100976.78;10348036;28;20214;-90
2022/03/16 20:48:22;;;;;;;10.73;8.27;;;;;;;14.94;28.60;100976.81;10350127;28;20229;-88
2022/03/16 20:53:26;;;;;;;11.35;9.68;;;;;;;13.89;30.17;100987.34;10389935;28;20302;-89
2022/03/16 21:03:49;;;;;;;12.60;10.97;;;;;;;13.48;30.77;100994.03;10369724;28;20201;-88
2022/03/16 21:08:52;;;;;;;12.87;10.87;;;;;;;14.74;29.17;100997.78;10356074;28;20230;-87
2022/03/16 21:13:54;;;;;;;12.93;11.13;;;;;;;13.64;30.43;101004.75;10379272;28;20201;-87
2022/03/16 21:19:00;;;;;;;11.37;10.13;;;;;;;13.65;30.80;100989.34;10368920;28;20598;-87
2022/03/16 21:24:04;;;;;;;13.33;11.27;;;;;;;13.80;30.16;100978.13;10369950;28;20252;-88
2022/03/16 21:29:07;;;;;;;11.90;10.30;;;;;;;14.61;29.22;100962.00;10382115;28;20267;-89
2022/03/16 21:34:10;;;;;;;13.87;11.60;;;;;;;14.50;29.40;100961.69;10378842;28;20209;-88
2022/03/16 21:39:13;;;;;;;14.43;11.60;;;;;;;14.68;29.33;100974.44;10357169;28;20217;-88
2022/03/16 21:44:24;;;;;;;14.30;12.60;;;;;;;13.44;30.86;100981.72;10363833;28;20259;-88
2022/03/16 21:49:30;;;;;;;15.03;12.20;;;;;;;13.80;30.38;100971.59;10374645;28;20640;-88
2022/03/16 21:54:33;;;;;;;14.83;11.87;;;;;;;12.65;32.35;100982.03;10392075;28;20281;-88
2022/03/16 21:59:37;;;;;;;14.30;12.47;;;;;;;13.86;30.46;100990.06;10371151;28;20193;-89
2022/03/16 22:04:40;;;;;;;14.83;12.00;;;;;;;13.25;31.44;100989.97;10372102;28;20193;-89
2022/03/16 22:09:42;;;;;;;14.70;11.33;;;;;;;13.14;31.56;100988.75;10369297;28;20777;-89
2022/03/16 22:14:45;;;;;;;14.83;11.97;;;;;;;13.69;30.92;100976.09;10372252;28;20221;-87
2022/03/16 22:19:47;;;;;;;14.80;11.63;;;;;;;13.71;30.55;100977.41;10355212;28;20522;-87
2022/03/16 22:24:49;;;;;;;15.50;11.93;;;;;;;13.14;31.30;100983.06;10349563;28;20267;-87
2022/03/16 22:29:52;;;;;;;15.47;12.33;;;;;;;13.89;30.04;100980.81;10368016;28;20283;-88
2022/03/16 22:34:54;;;;;;;12.20;10.90;;;;;;;13.35;31.35;100977.31;10368166;28;20507;-87
2022/03/16 22:39:57;;;;;;;15.53;11.63;;;;;;;13.70;30.75;100972.09;10368971;28;20201;-88
2022/03/16 22:44:59;;;;;;;15.27;12.33;;;;;;;13.24;30.99;100974.09;10351832;28;20197;-89
2022/03/16 22:50:02;;;;;;;16.80;12.07;;;;;;;13.73;30.56;100972.19;10370257;28;20381;-87
2022/03/16 22:55:07;;;;;;;16.20;12.13;;;;;;;13.59;30.74;100975.38;10371870;28;20277;-87
2022/03/16 23:00:31;;;;;;;15.03;12.23;;;;;;;13.21;30.74;100986.97;10371551;28;20209;-87
2022/03/16 23:05:33;;;;;;;15.27;12.93;;;;;;;13.34;30.90;100987.84;10377414;28;20200;-87
2022/03/16 23:10:37;;;;;;;18.10;13.60;;;;;;;13.17;31.14;100985.22;10367433;28;20577;-88
2022/03/16 23:15:39;;;;;;;18.47;13.97;;;;;;;13.00;31.70;100983.38;10367698;28;20495;-87
2022/03/16 23:20:42;;;;;;;13.53;12.13;;;;;;;13.01;31.43;100982.22;10356397;28;20196;-87
2022/03/16 23:25:50;;;;;;;16.27;12.17;;;;;;;12.41;32.53;100974.22;10360548;28;20205;-86
2022/03/16 23:30:54;;;;;;;14.63;11.77;;;;;;;12.82;31.91;100979.84;10380370;28;20679;-87
2022/03/16 23:35:56;;;;;;;15.97;13.23;;;;;;;13.56;30.81;100961.03;10378902;28;20541;-87
2022/03/16 23:40:58;;;;;;;14.43;12.50;;;;;;;12.98;31.91;100963.03;10364230;28;20205;-85
2022/03/16 23:46:01;;;;;;;13.90;12.30;;;;;;;12.99;31.47;100961.84;10380514;28;20204;-87
2022/03/16 23:51:04;;;;;;;15.17;13.10;;;;;;;12.84;31.95;100971.81;10390958;28;20525;-86
2022/03/16 23:56:06;;;;;;;16.27;13.63;;;;;;;12.82;31.93;100959.97;10373545;28;20247;-85
